Time;durP1;ratioP1;P1;durP2;ratioP2;P2;SDS_P1;SDS_P2;PMS_P1;PMS_P2;Temp;Humidity;BMP_temperature;BMP_pressure;BME280_temperature;BME280_humidity;BME280_pressure;Samples;Min_cycle;Max_cycle;Signal;HPM_P1;HPM_P2
2021/01/22 00:01:24;;;;;;;1.93;0.60;;;12.70;99.90;;;;;;6134264;23;20585;-79
2021/01/22 00:03:51;;;;;;;2.47;0.50;;;12.70;99.90;;;;;;6110690;23;20588;-80
2021/01/22 00:06:16;;;;;;;1.13;0.45;;;12.70;99.90;;;;;;6087390;23;20554;-80
2021/01/22 00:08:42;;;;;;;2.97;0.60;;;12.70;99.90;;;;;;6085497;23;20654;-80
2021/01/22 00:11:09;;;;;;;1.30;0.60;;;12.70;99.90;;;;;;6086142;23;20635;-80
2021/01/22 00:13:35;;;;;;;1.20;0.70;;;12.80;99.90;;;;;;6110905;23;20550;-80
2021/01/22 00:16:03;;;;;;;1.00;0.50;;;12.80;99.90;;;;;;6133739;23;20188;-80
2021/01/22 00:18:28;;;;;;;1.45;0.60;;;12.90;99.90;;;;;;6032715;23;20162;-79
2021/01/22 00:20:54;;;;;;;1.20;0.40;;;12.90;99.90;;;;;;6130430;23;20184;-80
2021/01/22 00:23:20;;;;;;;2.17;0.70;;;12.90;99.90;;;;;;6032231;23;20565;-79
2021/01/22 00:25:46;;;;;;;1.80;0.60;;;12.90;99.90;;;;;;6131120;23;20649;-80
2021/01/22 00:28:12;;;;;;;1.60;0.60;;;12.90;99.90;;;;;;6031605;23;20534;-79
2021/01/22 00:30:38;;;;;;;1.65;0.60;;;13.00;99.90;;;;;;6082680;23;20585;-80
2021/01/22 00:33:07;;;;;;;4.70;0.93;;;13.00;99.90;;;;;;6107703;23;20161;-79
2021/01/22 00:35:33;;;;;;;2.75;0.70;;;13.00;99.90;;;;;;6107393;23;20545;-79
2021/01/22 00:37:59;;;;;;;2.40;0.90;;;13.00;99.90;;;;;;6107745;23;20723;-79
2021/01/22 00:40:25;;;;;;;2.38;0.60;;;13.00;99.90;;;;;;6107955;23;20253;-79
2021/01/22 00:42:51;;;;;;;3.80;0.80;;;13.00;99.90;;;;;;6109413;23;20192;-80
2021/01/22 00:45:17;;;;;;;2.83;0.80;;;13.00;99.90;;;;;;6108962;23;20156;-79
2021/01/22 00:47:43;;;;;;;4.87;1.13;;;13.10;99.90;;;;;;6132666;23;21085;-80
2021/01/22 00:50:09;;;;;;;3.73;0.70;;;13.10;99.90;;;;;;6045056;23;20604;-80
2021/01/22 00:52:35;;;;;;;1.65;0.75;;;13.10;99.90;;;;;;6154563;23;20177;-80
2021/01/22 00:55:03;;;;;;;4.28;0.70;;;13.10;99.90;;;;;;6130714;23;20219;-80
2021/01/22 00:57:52;;;;;;;6.38;0.70;;;13.10;99.90;;;;;;6101839;23;20221;-80
2021/01/22 01:00:23;;;;;;;4.35;0.70;;;13.20;99.90;;;;;;6125035;23;20211;-80
2021/01/22 01:03:04;;;;;;;1.90;1.10;;;13.20;99.90;;;;;;6139197;23;20137;-80
2021/01/22 01:05:30;;;;;;;2.08;1.45;;;13.20;99.90;;;;;;6124899;23;20153;-80
2021/01/22 01:07:57;;;;;;;3.70;0.65;;;13.20;99.90;;;;;;6149554;23;20149;-80
2021/01/22 01:10:41;;;;;;;3.28;0.70;;;13.20;99.90;;;;;;6128462;23;20169;-80
2021/01/22 01:13:26;;;;;;;2.17;0.60;;;13.20;99.90;;;;;;6154040;23;20145;-79
2021/01/22 01:16:25;;;;;;;2.47;0.60;;;13.30;99.90;;;;;;6116640;23;20553;-79
2021/01/22 01:18:51;;;;;;;1.60;0.60;;;13.30;99.90;;;;;;6125931;23;20184;-79
2021/01/22 01:21:17;;;;;;;1.90;0.60;;;13.30;99.90;;;;;;6098633;23;20192;-79
2021/01/22 01:23:43;;;;;;;1.20;0.60;;;13.20;99.90;;;;;;6148376;23;20559;-80
2021/01/22 01:26:09;;;;;;;2.20;0.67;;;13.20;99.90;;;;;;6119813;23;20146;-79
2021/01/22 01:28:35;;;;;;;1.20;0.70;;;13.20;99.90;;;;;;6118004;23;20562;-79
2021/01/22 01:31:01;;;;;;;3.37;0.60;;;13.20;99.90;;;;;;6092538;23;20166;-79
2021/01/22 01:33:28;;;;;;;1.73;0.73;;;13.20;99.90;;;;;;6027448;23;20569;-79
2021/01/22 01:35:54;;;;;;;1.40;0.67;;;13.20;99.90;;;;;;6108182;23;20150;-79
2021/01/22 01:38:20;;;;;;;3.80;1.00;;;13.20;99.90;;;;;;6005967;23;20625;-79
2021/01/22 01:40:47;;;;;;;1.67;0.60;;;13.20;99.90;;;;;;6010691;23;20240;-79
2021/01/22 01:43:13;;;;;;;1.35;0.50;;;13.10;99.90;;;;;;6084543;23;20177;-80
2021/01/22 01:45:41;;;;;;;1.80;0.60;;;13.20;99.90;;;;;;6014684;23;20150;-79
2021/01/22 01:48:11;;;;;;;1.20;0.47;;;13.20;99.90;;;;;;6114355;23;20917;-80
2021/01/22 01:50:38;;;;;;;1.55;0.50;;;13.10;99.90;;;;;;6113770;23;20297;-80
2021/01/22 01:53:05;;;;;;;1.92;0.70;;;13.20;99.90;;;;;;6015624;23;20138;-79
2021/01/22 01:55:35;;;;;;;1.77;0.60;;;13.10;99.90;;;;;;6082847;23;20150;-79
2021/01/22 01:58:03;;;;;;;1.55;0.50;;;13.10;99.90;;;;;;6005616;23;20631;-80
2021/01/22 02:00:33;;;;;;;1.92;0.50;;;13.10;99.90;;;;;;6004625;23;20166;-79
2021/01/22 02:03:00;;;;;;;1.98;0.50;;;13.10;99.90;;;;;;6004607;23;20154;-79
2021/01/22 02:05:26;;;;;;;1.30;0.60;;;13.10;99.90;;;;;;6006414;23;20150;-79
2021/01/22 02:07:53;;;;;;;1.65;0.50;;;13.10;99.90;;;;;;6101851;23;20157;-80
2021/01/22 02:10:23;;;;;;;2.00;0.40;;;13.00;99.90;;;;;;6076661;23;20177;-80
2021/01/22 02:12:51;;;;;;;1.10;0.40;;;12.90;99.90;;;;;;6053778;23;20142;-79
2021/01/22 02:15:17;;;;;;;2.55;0.40;;;12.70;99.90;;;;;;6077316;23;20154;-80
2021/01/22 02:17:45;;;;;;;1.10;0.50;;;12.40;99.90;;;;;;6002918;23;20240;-79
2021/01/22 02:20:17;;;;;;;0.90;0.40;;;12.20;99.90;;;;;;6050740;23;20208;-79
2021/01/22 02:22:43;;;;;;;0.90;0.30;;;11.90;99.90;;;;;;6156121;23;20582;-79
2021/01/22 02:25:11;;;;;;;1.00;0.40;;;11.60;99.90;;;;;;6133612;23;20146;-79
2021/01/22 02:27:38;;;;;;;0.90;0.40;;;11.40;99.90;;;;;;6185872;23;20169;-79
2021/01/22 02:30:11;;;;;;;1.00;0.52;;;11.20;99.90;;;;;;6136513;23;20627;-79
2021/01/22 02:32:39;;;;;;;1.27;0.40;;;11.00;99.90;;;;;;6115500;23;20492;-79
2021/01/22 02:35:10;;;;;;;1.13;0.50;;;10.70;99.90;;;;;;6135523;23;20154;-79
2021/01/22 02:37:38;;;;;;;0.90;0.45;;;10.60;99.90;;;;;;6185609;23;20141;-79
2021/01/22 02:40:09;;;;;;;1.00;0.40;;;10.40;99.90;;;;;;6157915;23;20162;-79
2021/01/22 02:42:40;;;;;;;1.05;0.40;;;10.30;99.90;;;;;;6185781;23;20142;-79
2021/01/22 02:45:09;;;;;;;1.05;0.40;;;10.20;99.90;;;;;;6157657;23;20153;-79
2021/01/22 02:47:36;;;;;;;0.90;0.50;;;10.10;99.90;;;;;;6157028;23;20157;-79
2021/01/22 02:50:05;;;;;;;0.90;0.40;;;10.10;99.90;;;;;;6157517;23;20186;-78
2021/01/22 02:52:40;;;;;;;1.20;0.70;;;10.00;99.90;;;;;;6184560;23;20598;-79
2021/01/22 02:55:08;;;;;;;1.10;0.80;;;9.90;99.90;;;;;;6164993;23;20133;-79
2021/01/22 02:57:43;;;;;;;1.10;0.70;;;9.80;99.90;;;;;;6143992;23;20150;-79
2021/01/22 03:00:16;;;;;;;1.10;0.80;;;9.60;99.90;;;;;;6122195;23;20184;-79
2021/01/22 03:03:26;;;;;;;1.40;0.90;;;9.40;99.90;;;;;;6170155;23;20134;-79
2021/01/22 03:05:59;;;;;;;1.70;0.85;;;9.30;99.90;;;;;;6147847;23;20153;-79
2021/01/22 03:08:26;;;;;;;1.10;0.80;;;9.10;99.90;;;;;;6139255;23;20153;-79
2021/01/22 03:10:57;;;;;;;1.50;0.90;;;9.00;99.90;;;;;;6136783;23;20630;-79
2021/01/22 03:13:25;;;;;;;1.20;0.77;;;8.90;99.90;;;;;;6142472;23;20161;-79
2021/01/22 03:15:52;;;;;;;1.30;0.90;;;8.80;99.90;;;;;;6167593;23;20165;-79
2021/01/22 03:18:19;;;;;;;1.33;0.73;;;8.70;99.90;;;;;;6138988;23;20158;-79
2021/01/22 03:20:50;;;;;;;2.28;1.10;;;8.70;99.90;;;;;;6148371;23;20192;-83
2021/01/22 03:23:28;;;;;;;1.75;0.80;;;8.60;99.90;;;;;;6219698;23;20124;-82
2021/01/22 03:26:15;;;;;;;1.30;0.88;;;8.50;99.90;;;;;;6221063;23;20182;-82
2021/01/22 03:28:45;;;;;;;1.50;1.10;;;8.50;99.90;;;;;;6243572;23;20179;-82
2021/01/22 03:31:14;;;;;;;1.30;0.80;;;8.40;99.90;;;;;;6231046;23;20196;-82
2021/01/22 03:33:45;;;;;;;3.08;1.00;;;8.40;99.90;;;;;;6163378;23;20228;-82
2021/01/22 03:36:28;;;;;;;1.30;0.90;;;8.40;99.90;;;;;;6168262;23;20141;-79
2021/01/22 03:38:57;;;;;;;1.35;1.00;;;8.40;99.90;;;;;;6197286;23;20503;-80
2021/01/22 03:44:22;;;;;;;1.45;1.35;;;8.40;99.90;;;;;;6190381;23;20208;-81
2021/01/22 03:46:59;;;;;;;1.30;1.10;;;8.30;99.90;;;;;;6214583;23;20137;-81
2021/01/22 03:49:40;;;;;;;1.40;1.00;;;8.30;99.90;;;;;;6212218;23;20184;-80
2021/01/22 03:52:10;;;;;;;1.33;1.15;;;8.20;99.90;;;;;;6214089;23;20161;-81
2021/01/22 03:54:41;;;;;;;1.30;1.17;;;8.20;99.90;;;;;;6187440;23;20165;-80
2021/01/22 03:57:24;;;;;;;1.20;1.00;;;8.20;99.90;;;;;;6188240;23;20131;-80
2021/01/22 03:59:58;;;;;;;1.40;1.10;;;8.20;99.90;;;;;;6187179;23;20143;-80
2021/01/22 04:02:32;;;;;;;1.30;1.08;;;8.20;99.90;;;;;;6212328;23;20227;-81
2021/01/22 04:05:10;;;;;;;1.65;1.52;;;8.20;99.90;;;;;;6187133;23;20199;-81
2021/01/22 04:07:52;;;;;;;1.98;1.48;;;8.20;99.90;;;;;;6168564;23;20248;-81
2021/01/22 04:10:21;;;;;;;1.83;1.73;;;8.20;99.90;;;;;;6212704;23;20230;-81
2021/01/22 04:12:47;;;;;;;1.80;1.70;;;8.30;99.90;;;;;;6186581;23;20224;-81
2021/01/22 04:15:16;;;;;;;2.20;1.98;;;8.30;99.90;;;;;;6186628;23;20152;-81
2021/01/22 04:17:59;;;;;;;1.92;1.75;;;8.30;99.90;;;;;;6212678;23;20172;-81
2021/01/22 04:20:25;;;;;;;1.70;1.30;;;8.30;99.90;;;;;;6185985;23;20161;-80
2021/01/22 04:22:53;;;;;;;1.35;1.10;;;8.30;99.90;;;;;;6211488;23;20173;-80
2021/01/22 04:25:24;;;;;;;1.52;1.20;;;8.30;99.90;;;;;;6212839;23;20129;-80
2021/01/22 04:28:00;;;;;;;1.33;1.02;;;8.30;99.90;;;;;;6212178;23;20126;-81
2021/01/22 04:30:36;;;;;;;1.35;1.15;;;8.30;99.90;;;;;;6185843;23;20187;-80
2021/01/22 04:33:02;;;;;;;1.33;1.10;;;8.30;99.90;;;;;;6186560;23;20209;-80
2021/01/22 04:35:34;;;;;;;2.00;1.20;;;8.30;99.90;;;;;;6161574;23;20614;-80
2021/01/22 04:38:04;;;;;;;1.50;1.20;;;8.20;99.90;;;;;;6212605;23;20129;-80
2021/01/22 04:40:47;;;;;;;1.58;1.40;;;8.20;99.90;;;;;;6187767;23;20260;-80
2021/01/22 04:43:23;;;;;;;1.25;1.08;;;8.20;99.90;;;;;;6186083;23;20213;-80
2021/01/22 04:45:54;;;;;;;1.40;1.20;;;8.20;99.90;;;;;;6215720;23;20518;-80
2021/01/22 04:48:25;;;;;;;1.20;1.00;;;8.20;99.90;;;;;;6212388;23;20151;-81
2021/01/22 04:50:57;;;;;;;1.50;1.20;;;8.20;99.90;;;;;;6185628;23;20169;-81
2021/01/22 04:53:49;;;;;;;1.67;1.35;;;8.20;99.90;;;;;;6142924;23;20176;-81
2021/01/22 04:56:22;;;;;;;1.48;1.08;;;8.20;99.90;;;;;;6210507;23;20149;-80
2021/01/22 04:58:54;;;;;;;2.17;1.38;;;8.30;99.90;;;;;;6161395;23;20494;-80
2021/01/22 05:01:38;;;;;;;1.55;1.35;;;8.20;99.90;;;;;;6212298;23;20204;-80
2021/01/22 05:04:10;;;;;;;2.20;1.42;;;8.30;99.90;;;;;;6162537;23;20180;-81
2021/01/22 05:06:41;;;;;;;2.05;1.30;;;8.30;99.90;;;;;;6212654;23;20631;-81
2021/01/22 05:09:20;;;;;;;2.20;1.20;;;8.30;99.90;;;;;;6162562;23;20255;-81
2021/01/22 05:11:55;;;;;;;1.55;1.20;;;8.30;99.90;;;;;;6161359;23;20595;-81
2021/01/22 05:14:24;;;;;;;2.00;1.67;;;8.30;99.90;;;;;;6161026;23;20149;-81
2021/01/22 05:17:19;;;;;;;2.65;1.27;;;8.30;99.90;;;;;;6161967;23;20223;-81
2021/01/22 05:20:10;;;;;;;4.50;1.55;;;8.30;99.90;;;;;;6190582;23;20649;-81
2021/01/22 05:22:53;;;;;;;1.60;1.30;;;8.30;99.90;;;;;;6167140;23;20160;-79
2021/01/22 05:25:24;;;;;;;2.10;1.50;;;8.30;99.90;;;;;;6161333;23;20211;-81
2021/01/22 05:28:02;;;;;;;1.98;1.30;;;8.30;99.90;;;;;;6186591;23;20179;-81
2021/01/22 05:30:55;;;;;;;2.28;1.80;;;8.30;99.90;;;;;;6212608;23;20272;-80
2021/01/22 05:33:26;;;;;;;1.83;1.20;;;8.30;99.90;;;;;;6211510;23;20173;-80
2021/01/22 05:36:01;;;;;;;2.90;1.95;;;8.20;99.90;;;;;;6213762;23;20136;-81
2021/01/22 05:38:40;;;;;;;3.00;1.92;;;8.30;99.90;;;;;;6188047;23;20152;-81
2021/01/22 05:41:14;;;;;;;1.60;1.40;;;8.30;99.90;;;;;;6163303;23;20165;-81
2021/01/22 05:43:57;;;;;;;2.00;1.90;;;8.30;99.90;;;;;;6214001;23;20141;-82
2021/01/22 05:46:28;;;;;;;2.00;1.40;;;8.30;99.90;;;;;;6234363;23;20133;-81
2021/01/22 05:49:08;;;;;;;2.00;1.77;;;8.40;99.90;;;;;;6235904;23;20169;-81
2021/01/22 05:51:37;;;;;;;2.50;2.30;;;8.40;99.90;;;;;;6234734;23;20160;-81
2021/01/22 05:54:03;;;;;;;4.15;1.80;;;8.40;99.90;;;;;;6208772;23;20176;-80
2021/01/22 05:56:29;;;;;;;2.40;1.92;;;8.40;99.90;;;;;;6206605;23;20145;-80
2021/01/22 05:58:58;;;;;;;2.05;1.85;;;8.40;99.90;;;;;;6206442;23;20180;-80
2021/01/22 06:01:32;;;;;;;1.85;1.70;;;8.40;99.90;;;;;;6196288;23;20500;-81
2021/01/22 06:04:07;;;;;;;2.45;2.20;;;8.40;99.90;;;;;;6187881;23;20164;-81
2021/01/22 06:06:33;;;;;;;2.15;1.95;;;8.30;99.90;;;;;;6162653;23;20145;-81
2021/01/22 06:09:00;;;;;;;2.90;2.65;;;8.40;99.90;;;;;;6187956;23;20225;-80
2021/01/22 06:11:34;;;;;;;2.70;2.10;;;8.40;99.90;;;;;;6189414;23;20161;-80
2021/01/22 06:14:04;;;;;;;2.75;2.45;;;8.30;99.90;;;;;;6163453;23;20153;-81
2021/01/22 06:16:44;;;;;;;2.67;1.98;;;8.40;99.90;;;;;;6188235;23;20132;-80
2021/01/22 06:19:16;;;;;;;2.05;1.77;;;8.30;99.90;;;;;;6187084;23;20137;-80
2021/01/22 06:22:14;;;;;;;3.65;2.10;;;8.30;99.90;;;;;;6211647;23;20218;-81
2021/01/22 06:24:50;;;;;;;2.80;1.60;;;8.30;99.90;;;;;;6204779;23;20463;-80
2021/01/22 06:27:27;;;;;;;6.93;2.72;;;8.30;99.90;;;;;;6188416;23;20571;-81
2021/01/22 06:30:02;;;;;;;3.22;2.30;;;8.30;99.90;;;;;;6163063;23;20492;-82
2021/01/22 06:32:40;;;;;;;2.08;1.80;;;8.20;99.90;;;;;;6139029;23;20141;-81
2021/01/22 06:35:11;;;;;;;2.40;1.85;;;8.20;99.90;;;;;;6137763;23;20157;-82
2021/01/22 06:37:40;;;;;;;2.25;1.90;;;8.20;99.90;;;;;;6162226;23;20149;-82
2021/01/22 06:40:16;;;;;;;2.63;1.98;;;8.20;99.90;;;;;;6216678;23;20126;-82
2021/01/22 06:42:49;;;;;;;2.17;1.98;;;8.20;99.90;;;;;;6212391;23;20286;-82
2021/01/22 06:45:23;;;;;;;2.73;2.53;;;8.10;99.90;;;;;;6211606;23;20774;-82
2021/01/22 06:48:07;;;;;;;2.90;2.67;;;8.10;99.90;;;;;;6161690;23;20549;-81
2021/01/22 06:51:34;;;;;;;3.95;3.13;;;8.00;99.90;;;;;;6211194;23;20686;-82
2021/01/22 06:54:21;;;;;;;4.28;3.42;;;7.90;99.90;;;;;;6216134;23;20678;-82
2021/01/22 06:57:15;;;;;;;3.38;3.08;;;7.90;99.90;;;;;;6170346;23;20149;-81
2021/01/22 07:00:40;;;;;;;2.75;2.55;;;8.10;99.90;;;;;;6166000;23;20141;-79
2021/01/22 07:03:06;;;;;;;3.95;2.60;;;8.00;99.90;;;;;;6188445;23;20133;-79
2021/01/22 07:05:40;;;;;;;2.65;2.40;;;8.10;99.90;;;;;;6212935;23;20606;-80
2021/01/22 07:08:54;;;;;;;3.03;2.05;;;8.10;99.90;;;;;;6159827;23;20176;-80
2021/01/22 07:11:51;;;;;;;3.35;2.00;;;8.10;99.90;;;;;;6198289;23;20157;-80
2021/01/22 07:14:38;;;;;;;2.80;2.00;;;8.10;99.90;;;;;;6213969;23;20145;-80
2021/01/22 07:17:51;;;;;;;1.67;1.40;;;8.10;99.90;;;;;;6215157;23;20142;-80
2021/01/22 07:20:20;;;;;;;1.90;1.33;;;8.00;99.90;;;;;;6167965;23;20180;-80
2021/01/22 07:23:01;;;;;;;1.50;1.35;;;8.00;99.90;;;;;;6162628;23;20137;-79
2021/01/22 07:25:42;;;;;;;1.60;1.00;;;8.00;99.90;;;;;;6161613;23;20156;-79
2021/01/22 07:28:52;;;;;;;1.75;1.20;;;8.00;99.90;;;;;;6190029;23;20125;-79
2021/01/22 07:31:55;;;;;;;1.63;1.17;;;8.00;99.90;;;;;;6187529;23;20161;-79
2021/01/22 07:34:56;;;;;;;1.55;1.08;;;8.00;99.90;;;;;;6192090;23;20132;-79
2021/01/22 07:37:58;;;;;;;1.30;0.90;;;8.00;99.90;;;;;;6217681;23;20130;-78
2021/01/22 07:40:45;;;;;;;1.77;1.42;;;8.00;99.90;;;;;;6193454;23;20161;-79
2021/01/22 07:43:27;;;;;;;2.50;1.13;;;8.00;99.90;;;;;;6220079;23;20199;-80
2021/01/22 07:46:45;;;;;;;1.40;1.00;;;8.00;99.90;;;;;;6229030;23;20135;-79
2021/01/22 07:50:02;;;;;;;2.65;0.80;;;8.00;99.90;;;;;;6186264;23;20177;-78
2021/01/22 07:52:47;;;;;;;1.80;0.82;;;8.00;99.90;;;;;;6211096;23;20133;-79
2021/01/22 07:55:57;;;;;;;;;;;;;;;;;;;;;
2021/01/22 07:58:42;;;;;;;7.40;1.15;;;8.20;99.90;;;;;;6194855;23;20156;-79
2021/01/22 08:01:28;;;;;;;4.78;1.40;;;8.20;99.90;;;;;;6183194;23;20169;-81
2021/01/22 08:04:20;;;;;;;6.80;1.70;;;8.20;99.90;;;;;;6167130;23;20698;-79
2021/01/22 08:07:44;;;;;;;4.80;0.95;;;8.20;99.90;;;;;;6209188;23;20153;-79
2021/01/22 08:10:33;;;;;;;4.70;1.13;;;8.30;99.90;;;;;;6192148;23;20187;-79
2021/01/22 08:13:07;;;;;;;1.85;1.00;;;8.30;99.90;;;;;;6146407;23;20169;-79
2021/01/22 08:16:13;;;;;;;;;;;;;;;;;;;;;
2021/01/22 08:19:13;;;;;;;3.78;1.65;;;8.40;99.90;;;;;;6188958;23;20144;-79
2021/01/22 08:21:44;;;;;;;3.00;0.90;;;8.40;99.90;;;;;;6165306;23;20188;-79
2021/01/22 08:24:25;;;;;;;6.28;1.40;;;8.50;99.90;;;;;;6169765;23;20591;-79
2021/01/22 08:27:24;;;;;;;9.10;1.20;;;8.50;99.90;;;;;;6186908;23;20149;-78
2021/01/22 08:30:12;;;;;;;7.70;1.23;;;8.50;99.90;;;;;;6139733;23;20188;-78
2021/01/22 08:33:12;;;;;;;5.50;1.20;;;8.50;99.90;;;;;;6169457;23;20159;-78
2021/01/22 08:35:54;;;;;;;;;;;;;;;;;;;;;
2021/01/22 08:38:24;;;;;;;3.63;1.92;;;8.50;99.90;;;;;;6214477;23;20228;-78
2021/01/22 08:41:30;;;;;;;4.35;1.20;;;8.50;99.90;;;;;;6148251;23;20499;-78
2021/01/22 08:44:09;;;;;;;;;;;;;;;;;;;;;
2021/01/22 08:46:50;;;;;;;4.25;1.20;;;8.60;99.90;;;;;;6214104;23;20450;-79
2021/01/22 08:49:39;;;;;;;4.03;1.35;;;8.50;99.90;;;;;;6170127;23;20204;-77
2021/01/22 08:52:16;;;;;;;2.83;0.80;;;8.60;99.90;;;;;;6163384;23;20470;-77
2021/01/22 08:54:45;;;;;;;6.43;0.95;;;8.70;99.90;;;;;;6163445;23;20259;-78
2021/01/22 08:57:14;;;;;;;7.43;1.10;;;8.70;99.90;;;;;;6162711;23;20153;-78
2021/01/22 08:59:51;;;;;;;3.13;1.42;;;8.70;99.90;;;;;;6186956;23;20152;-78
2021/01/22 09:02:49;;;;;;;2.08;0.90;;;8.80;99.90;;;;;;6187485;23;20192;-78
2021/01/22 09:05:17;;;;;;;3.90;0.88;;;8.90;99.90;;;;;;6163128;23;20436;-78
2021/01/22 09:08:16;;;;;;;2.00;0.80;;;9.00;99.90;;;;;;6188768;23;20156;-78
2021/01/22 09:10:50;;;;;;;1.52;0.70;;;9.10;99.90;;;;;;6190730;23;20200;-78
2021/01/22 09:13:21;;;;;;;1.50;0.70;;;9.10;99.90;;;;;;6187578;23;20184;-78
2021/01/22 09:16:10;;;;;;;1.90;1.10;;;9.10;99.90;;;;;;6211562;23;20184;-78
2021/01/22 09:18:36;;;;;;;1.77;1.00;;;9.20;99.90;;;;;;6161117;23;20173;-78
2021/01/22 09:21:09;;;;;;;1.73;0.70;;;9.30;99.90;;;;;;6187003;23;20181;-78
2021/01/22 09:23:47;;;;;;;2.78;0.90;;;9.30;99.90;;;;;;6213107;23;20164;-78
2021/01/22 09:26:13;;;;;;;2.03;1.00;;;9.40;99.90;;;;;;6186543;23;20140;-78
2021/01/22 09:28:55;;;;;;;;;;;;;;;;;;;;;
2021/01/22 09:32:12;;;;;;;2.08;0.80;;;9.50;99.90;;;;;;6211900;23;20673;-79
2021/01/22 09:34:40;;;;;;;3.40;1.00;;;9.60;99.90;;;;;;6136910;23;20528;-78
2021/01/22 09:37:14;;;;;;;1.95;1.02;;;9.70;99.90;;;;;;6213046;23;20590;-79
2021/01/22 09:39:40;;;;;;;2.40;1.00;;;9.90;99.90;;;;;;6161557;23;20231;-79
2021/01/22 09:42:09;;;;;;;1.70;1.10;;;10.00;99.90;;;;;;6161471;23;20173;-80
2021/01/22 09:44:37;;;;;;;2.78;1.00;;;10.20;99.90;;;;;;6186570;23;20140;-79
2021/01/22 09:47:15;;;;;;;2.00;0.93;;;10.30;99.90;;;;;;6166519;23;20156;-79
2021/01/22 09:49:46;;;;;;;2.08;1.27;;;10.40;99.90;;;;;;6185958;23;20159;-79
2021/01/22 09:52:14;;;;;;;4.30;1.45;;;10.60;99.90;;;;;;6186649;23;20716;-79
2021/01/22 09:54:45;;;;;;;2.92;1.45;;;10.60;99.90;;;;;;6187216;23;20530;-78
2021/01/22 09:57:17;;;;;;;1.80;1.13;;;10.70;99.90;;;;;;6212023;23;20220;-78
2021/01/22 09:59:46;;;;;;;2.15;1.30;;;10.70;99.90;;;;;;6161634;23;20191;-78
2021/01/22 10:14:23;;;;;;;6.80;1.33;;;11.20;99.90;;;;;;6157637;23;20456;-76
2021/01/22 10:16:52;;;;;;;2.40;1.08;;;11.40;99.90;;;;;;6129458;23;20149;-76
2021/01/22 10:19:21;;;;;;;1.42;0.85;;;11.50;99.90;;;;;;6178721;23;20618;-76
2021/01/22 10:21:54;;;;;;;3.65;1.50;;;11.60;99.90;;;;;;6130857;23;20253;-76
2021/01/22 10:24:20;;;;;;;1.70;0.80;;;11.70;99.90;;;;;;6155396;23;20173;-77
2021/01/22 10:26:51;;;;;;;2.97;1.10;;;11.70;99.90;;;;;;6131560;23;20146;-77
2021/01/22 10:29:40;;;;;;;3.35;1.20;;;11.80;99.90;;;;;;6154244;23;20173;-76
2021/01/22 10:32:09;;;;;;;3.63;1.02;;;11.80;99.90;;;;;;6129233;23;20173;-76
2021/01/22 10:34:51;;;;;;;2.50;1.08;;;11.80;99.90;;;;;;6181400;23;20130;-77
2021/01/22 10:37:45;;;;;;;2.05;1.00;;;11.90;99.90;;;;;;6154376;23;20562;-77
2021/01/22 10:40:14;;;;;;;1.80;1.02;;;11.90;99.90;;;;;;6137104;23;20253;-77
2021/01/22 10:42:45;;;;;;;1.40;1.02;;;11.90;99.90;;;;;;6154239;23;20154;-77
2021/01/22 10:45:21;;;;;;;1.40;0.70;;;11.80;99.90;;;;;;6133420;23;20520;-77
2021/01/22 10:48:07;;;;;;;2.22;1.00;;;11.80;99.90;;;;;;6157984;23;20158;-77
2021/01/22 10:50:46;;;;;;;1.40;0.73;;;11.80;99.90;;;;;;6105612;23;20196;-77
2021/01/22 10:53:13;;;;;;;3.13;1.20;;;11.80;99.90;;;;;;6130030;23;20149;-77
2021/01/22 10:56:10;;;;;;;;;;;;;;;;;;;;;
2021/01/22 10:59:09;;;;;;;1.60;1.10;;;11.80;99.90;;;;;;6152487;23;20532;-77
2021/01/22 11:01:38;;;;;;;3.05;1.15;;;11.90;99.90;;;;;;6156037;23;20638;-77
2021/01/22 11:04:07;;;;;;;2.28;0.90;;;12.00;99.90;;;;;;6156910;23;20180;-78
2021/01/22 11:06:40;;;;;;;2.45;1.50;;;12.00;99.90;;;;;;6157616;23;20141;-77
2021/01/22 11:09:10;;;;;;;3.35;1.48;;;12.10;99.90;;;;;;6130488;23;20718;-78
2021/01/22 11:11:46;;;;;;;1.73;0.90;;;12.10;99.90;;;;;;6092591;23;20260;-77
2021/01/22 11:14:15;;;;;;;3.83;1.00;;;12.20;99.90;;;;;;6114888;23;20160;-78
2021/01/22 11:16:41;;;;;;;2.85;1.15;;;12.20;99.90;;;;;;6034139;23;20592;-78
2021/01/22 11:19:23;;;;;;;3.35;1.00;;;12.30;99.90;;;;;;6034537;23;20192;-78
2021/01/22 11:21:52;;;;;;;1.77;1.20;;;12.30;99.90;;;;;;6007728;23;20201;-77
2021/01/22 11:24:18;;;;;;;1.48;0.90;;;12.30;99.90;;;;;;5983684;23;20212;-78
2021/01/22 11:26:49;;;;;;;2.67;1.20;;;12.40;99.90;;;;;;5984556;23;20165;-78
2021/01/22 11:29:18;;;;;;;3.05;1.08;;;12.40;99.90;;;;;;5982634;23;20242;-78
2021/01/22 11:32:22;;;;;;;2.88;1.25;;;12.40;99.90;;;;;;6012412;23;20181;-79
2021/01/22 11:34:56;;;;;;;3.22;1.00;;;12.40;99.90;;;;;;5984210;23;20757;-78
2021/01/22 11:37:44;;;;;;;1.58;0.90;;;12.40;99.90;;;;;;5987057;23;20148;-78
2021/01/22 11:40:11;;;;;;;2.88;1.15;;;12.30;99.90;;;;;;6030868;23;20594;-78
2021/01/22 11:42:47;;;;;;;6.32;1.50;;;12.30;99.90;;;;;;6007463;23;20161;-78
2021/01/22 11:45:16;;;;;;;3.88;1.00;;;12.30;99.90;;;;;;6030775;23;20674;-79
2021/01/22 11:48:08;;;;;;;3.70;1.10;;;12.30;99.90;;;;;;6029924;23;20152;-78
2021/01/22 11:50:49;;;;;;;1.95;0.90;;;12.20;99.90;;;;;;6030617;23;20185;-78
2021/01/22 11:53:26;;;;;;;1.90;0.95;;;12.20;99.90;;;;;;5984250;23;20149;-79
2021/01/22 11:56:20;;;;;;;;;;;;;;;;;;;;;
2021/01/22 11:59:03;;;;;;;3.13;1.27;;;12.30;99.90;;;;;;6030309;23;20169;-77
2021/01/22 12:01:35;;;;;;;2.05;0.90;;;12.30;99.90;;;;;;6005630;23;20192;-78
2021/01/22 12:04:36;;;;;;;;;;;;;;;;;;;;;
2021/01/22 12:07:29;;;;;;;2.80;2.15;;;12.40;99.90;;;;;;6007224;23;20149;-78
2021/01/22 12:09:57;;;;;;;2.40;1.48;;;12.40;99.90;;;;;;6007859;23;20173;-79
2021/01/22 12:12:36;;;;;;;;;;;;;;;;;;;;;
2021/01/22 12:15:10;;;;;;;3.25;2.28;;;12.40;99.90;;;;;;6007958;23;20573;-79
2021/01/22 12:17:45;;;;;;;4.68;2.40;;;12.40;99.90;;;;;;5985934;23;20483;-79
2021/01/22 12:20:14;;;;;;;2.92;1.90;;;12.30;99.90;;;;;;5985145;23;20583;-79
2021/01/22 12:23:08;;;;;;;5.57;3.28;;;12.30;99.90;;;;;;6008635;23;20620;-79
2021/01/22 12:26:21;;;;;;;4.13;2.88;;;12.30;99.90;;;;;;6013798;23;20162;-79
2021/01/22 12:29:03;;;;;;;4.82;2.22;;;12.30;99.90;;;;;;6031188;23;20643;-80
2021/01/22 12:31:44;;;;;;;2.60;2.40;;;12.30;99.90;;;;;;6009296;23;20651;-79
2021/01/22 12:34:15;;;;;;;4.03;2.30;;;12.40;99.90;;;;;;6012082;23;20157;-78
2021/01/22 12:36:57;;;;;;;3.30;2.95;;;12.40;99.90;;;;;;5990057;23;20524;-79
2021/01/22 12:39:59;;;;;;;4.82;2.20;;;12.40;99.90;;;;;;6042579;23;20137;-79
2021/01/22 12:42:48;;;;;;;2.80;1.83;;;12.40;99.90;;;;;;6005941;23;20144;-78
2021/01/22 12:45:32;;;;;;;2.75;2.42;;;12.40;99.90;;;;;;6009015;23;20151;-78
2021/01/22 12:48:04;;;;;;;7.32;3.80;;;12.40;99.90;;;;;;6028529;23;20206;-79
2021/01/22 12:51:00;;;;;;;5.55;3.60;;;12.40;99.90;;;;;;6006216;23;20252;-78
2021/01/22 12:54:01;;;;;;;5.88;3.70;;;12.30;99.90;;;;;;6050941;23;20130;-79
2021/01/22 12:56:33;;;;;;;6.55;4.30;;;12.30;99.90;;;;;;6026084;23;20153;-77
2021/01/22 12:59:30;;;;;;;3.72;2.85;;;12.30;99.90;;;;;;6048347;23;20145;-77
2021/01/22 13:02:28;;;;;;;4.30;2.17;;;12.30;99.90;;;;;;6032940;23;20176;-78
2021/01/22 13:05:18;;;;;;;4.40;1.50;;;12.40;99.90;;;;;;6011559;23;20173;-79
2021/01/22 13:10:39;;;;;;;2.60;1.90;;;12.40;99.90;;;;;;6052330;23;20189;-77
2021/01/22 13:13:05;;;;;;;4.80;2.40;;;12.30;99.90;;;;;;6009524;23;20169;-79
2021/01/22 13:15:43;;;;;;;5.43;1.88;;;12.30;99.90;;;;;;6032318;23;20161;-80
2021/01/22 13:18:20;;;;;;;;;;;;;;;;;;;;;
2021/01/22 13:21:05;;;;;;;5.82;1.70;;;12.20;99.90;;;;;;6032697;23;20176;-78
2021/01/22 13:23:41;;;;;;;4.55;1.92;;;12.10;99.90;;;;;;5985085;23;20145;-78
2021/01/22 13:26:26;;;;;;;5.30;2.90;;;12.00;99.90;;;;;;6031437;23;20216;-78
2021/01/22 13:33:02;;;;;;;4.78;2.22;;;11.80;99.90;;;;;;6062422;23;20149;-77
2021/01/22 13:35:30;;;;;;;3.05;1.10;;;11.70;99.90;;;;;;6029767;23;20161;-78
2021/01/22 13:38:12;;;;;;;2.20;1.10;;;11.60;99.90;;;;;;6030490;23;20474;-78
2021/01/22 13:40:41;;;;;;;3.22;1.10;;;11.50;99.90;;;;;;6029889;23;20219;-78
2021/01/22 13:43:10;;;;;;;2.60;0.90;;;11.30;99.90;;;;;;6007425;23;20157;-79
2021/01/22 13:45:46;;;;;;;1.60;1.00;;;11.20;99.90;;;;;;6030153;23;20138;-78
2021/01/22 13:48:14;;;;;;;2.07;1.33;;;11.20;99.90;;;;;;6034102;23;20249;-79
2021/01/22 13:50:41;;;;;;;2.10;1.23;;;11.10;99.90;;;;;;6006414;23;20588;-79
2021/01/22 13:53:08;;;;;;;3.35;1.38;;;11.00;99.90;;;;;;6029956;23;20168;-78
2021/01/22 13:55:45;;;;;;;3.47;0.95;;;10.90;99.90;;;;;;6006290;23;20144;-79
2021/01/22 13:58:16;;;;;;;2.42;1.60;;;10.80;99.90;;;;;;6031310;23;20208;-79
2021/01/22 14:00:44;;;;;;;3.08;1.10;;;10.80;99.90;;;;;;6031424;23;20184;-79
2021/01/22 14:07:02;;;;;;;2.30;1.10;;;10.60;99.90;;;;;;6036173;23;20464;-80
2021/01/22 14:09:31;;;;;;;4.85;1.05;;;10.60;99.90;;;;;;6006928;23;20181;-79
2021/01/22 14:12:01;;;;;;;3.78;1.10;;;10.60;99.90;;;;;;6029880;23;20169;-78
2021/01/22 14:14:28;;;;;;;1.63;0.90;;;10.50;99.90;;;;;;6091168;23;20181;-79
2021/01/22 14:16:57;;;;;;;2.90;1.10;;;10.50;99.90;;;;;;6130762;23;20153;-79
2021/01/22 14:19:23;;;;;;;1.95;0.90;;;10.40;99.90;;;;;;6155167;23;20891;-78